Time;durP1;ratioP1;P1;durP2;ratioP2;P2;SDS_P1;SDS_P2;PMS_P1;PMS_P2;Temp;Humidity;BMP_temperature;BMP_pressure;BME280_temperature;BME280_humidity;BME280_pressure;Samples;Min_cycle;Max_cycle;Signal;HPM_P1;HPM_P2
2022/08/05 00:02:06;;;;;;;5.78;2.25;;;;;;;;;;5081445;28;20024;-78
2022/08/05 00:04:32;;;;;;;3.75;2.25;;;;;;;;;;5082572;28;20120;-79
2022/08/05 00:06:57;;;;;;;2.73;2.30;;;;;;;;;;5082545;28;20028;-77
2022/08/05 00:09:22;;;;;;;5.70;2.33;;;;;;;;;;5081798;28;20360;-77
2022/08/05 00:11:48;;;;;;;5.38;2.40;;;;;;;;;;5082438;28;20048;-78
2022/08/05 00:14:13;;;;;;;3.85;2.20;;;;;;;;;;5081785;28;20026;-77
2022/08/05 00:16:38;;;;;;;6.23;2.30;;;;;;;;;;5082381;28;20035;-78
2022/08/05 00:19:04;;;;;;;3.20;2.40;;;;;;;;;;5082053;28;20327;-77
2022/08/05 00:21:29;;;;;;;5.00;2.13;;;;;;;;;;5062912;28;20028;-79
2022/08/05 00:23:55;;;;;;;2.50;2.30;;;;;;;;;;5081795;28;20073;-79
2022/08/05 00:26:20;;;;;;;3.55;2.30;;;;;;;;;;5082018;28;20285;-79
2022/08/05 00:28:46;;;;;;;5.53;2.40;;;;;;;;;;5082542;28;20024;-78
2022/08/05 00:31:12;;;;;;;3.50;2.23;;;;;;;;;;5081567;28;20103;-78
2022/08/05 00:33:37;;;;;;;4.38;2.33;;;;;;;;;;5081692;28;20730;-78
2022/08/05 00:36:03;;;;;;;4.87;2.13;;;;;;;;;;5082454;28;20111;-79
2022/08/05 00:38:28;;;;;;;3.63;2.17;;;;;;;;;;5082047;28;20020;-78
2022/08/05 00:40:55;;;;;;;3.10;2.27;;;;;;;;;;5081908;28;20025;-80
2022/08/05 00:43:21;;;;;;;4.47;2.50;;;;;;;;;;5063560;28;20082;-79
2022/08/05 00:45:46;;;;;;;4.72;2.30;;;;;;;;;;5064511;28;20028;-78
2022/08/05 00:48:18;;;;;;;3.55;2.17;;;;;;;;;;5081893;28;20021;-78
2022/08/05 00:50:46;;;;;;;3.00;2.22;;;;;;;;;;5082614;28;20025;-78
2022/08/05 00:53:16;;;;;;;3.25;2.20;;;;;;;;;;5083304;28;20486;-79
2022/08/05 00:55:42;;;;;;;6.32;2.28;;;;;;;;;;5082853;28;20024;-79
2022/08/05 00:58:11;;;;;;;4.00;2.30;;;;;;;;;;5082264;28;20388;-78
2022/08/05 01:00:37;;;;;;;3.20;2.13;;;;;;;;;;5082316;28;20059;-79
2022/08/05 01:03:02;;;;;;;6.20;2.30;;;;;;;;;;5080672;28;20393;-78
2022/08/05 01:05:28;;;;;;;6.80;2.23;;;;;;;;;;5080075;28;20028;-77
2022/08/05 01:07:54;;;;;;;4.07;2.20;;;;;;;;;;5079828;28;20106;-79
2022/08/05 01:10:23;;;;;;;6.22;2.20;;;;;;;;;;5081135;28;20024;-78
2022/08/05 01:12:54;;;;;;;6.28;2.30;;;;;;;;;;5082062;28;20489;-77
2022/08/05 01:15:25;;;;;;;6.40;2.05;;;;;;;;;;5064553;28;20025;-80
2022/08/05 01:17:56;;;;;;;3.30;2.20;;;;;;;;;;5082245;28;20351;-77
2022/08/05 01:20:28;;;;;;;4.30;2.30;;;;;;;;;;5080796;28;20508;-79
2022/08/05 01:23:00;;;;;;;4.10;2.30;;;;;;;;;;5080861;28;20474;-79
2022/08/05 01:25:52;;;;;;;4.47;2.30;;;;;;;;;;5081097;28;20071;-77
2022/08/05 01:28:29;;;;;;;5.65;2.30;;;;;;;;;;5079605;28;20033;-78
2022/08/05 01:31:13;;;;;;;3.20;2.20;;;;;;;;;;5080165;28;20501;-80
2022/08/05 01:33:50;;;;;;;5.75;2.28;;;;;;;;;;5080959;28;20027;-78
2022/08/05 01:36:17;;;;;;;4.22;2.40;;;;;;;;;;5080674;28;20036;-79
2022/08/05 01:38:46;;;;;;;2.90;2.53;;;;;;;;;;5080037;28;20027;-78
2022/08/05 01:41:13;;;;;;;4.60;2.63;;;;;;;;;;5080762;28;20627;-79
2022/08/05 01:43:40;;;;;;;3.63;2.40;;;;;;;;;;5080618;28;20024;-78
2022/08/05 01:46:06;;;;;;;5.15;2.33;;;;;;;;;;5080230;28;20032;-76
2022/08/05 01:48:34;;;;;;;7.32;2.50;;;;;;;;;;5079202;28;20059;-78
2022/08/05 01:51:01;;;;;;;3.47;2.70;;;;;;;;;;5080322;28;20389;-77
2022/08/05 01:53:27;;;;;;;3.92;2.50;;;;;;;;;;5080360;28;20012;-80
2022/08/05 01:55:57;;;;;;;4.55;2.50;;;;;;;;;;5080879;28;20035;-77
2022/08/05 01:58:25;;;;;;;8.43;2.65;;;;;;;;;;5076886;28;20024;-74
2022/08/05 02:00:51;;;;;;;3.50;2.63;;;;;;;;;;5073647;28;20085;-73
2022/08/05 02:03:24;;;;;;;6.28;2.85;;;;;;;;;;5055676;28;20111;-73
2022/08/05 02:05:52;;;;;;;3.63;2.50;;;;;;;;;;5073950;28;20027;-73
2022/08/05 02:08:18;;;;;;;8.95;2.65;;;;;;;;;;5073575;28;20451;-73
2022/08/05 02:10:49;;;;;;;5.53;2.38;;;;;;;;;;5073328;28;20032;-73
2022/08/05 02:13:17;;;;;;;3.55;2.53;;;;;;;;;;5073543;28;20020;-73
2022/08/05 02:15:49;;;;;;;7.43;2.90;;;;;;;;;;5073428;28;20041;-73
2022/08/05 02:18:29;;;;;;;3.35;2.70;;;;;;;;;;5055198;28;20033;-74
2022/08/05 02:21:10;;;;;;;2.97;2.60;;;;;;;;;;5073729;28;20024;-73
2022/08/05 02:23:38;;;;;;;5.00;2.83;;;;;;;;;;5073781;28;20034;-74
2022/08/05 02:26:06;;;;;;;3.42;2.50;;;;;;;;;;5073353;28;20032;-73
2022/08/05 02:28:35;;;;;;;2.75;2.28;;;;;;;;;;5073519;28;20107;-73
2022/08/05 02:31:10;;;;;;;4.68;2.50;;;;;;;;;;5073214;28;20500;-73
2022/08/05 02:33:39;;;;;;;4.82;2.63;;;;;;;;;;5073213;28;20397;-72
2022/08/05 02:36:09;;;;;;;3.63;2.85;;;;;;;;;;5074033;28;20020;-73
2022/08/05 02:38:35;;;;;;;4.85;2.63;;;;;;;;;;5073408;28;20025;-73
2022/08/05 02:41:02;;;;;;;8.98;3.10;;;;;;;;;;5073547;28;20027;-72
2022/08/05 02:43:28;;;;;;;5.45;2.50;;;;;;;;;;5054973;28;20024;-73
2022/08/05 02:45:54;;;;;;;5.90;2.63;;;;;;;;;;5073077;28;20029;-72
2022/08/05 02:48:21;;;;;;;3.03;2.70;;;;;;;;;;5073138;28;20024;-72
2022/08/05 02:50:50;;;;;;;5.10;2.50;;;;;;;;;;5073088;28;20024;-73
2022/08/05 02:53:17;;;;;;;3.85;2.65;;;;;;;;;;5073332;28;20021;-71
2022/08/05 02:55:44;;;;;;;2.90;2.60;;;;;;;;;;5073016;28;20028;-72
2022/08/05 02:58:13;;;;;;;4.75;2.70;;;;;;;;;;5072680;28;20117;-73
2022/08/05 03:00:39;;;;;;;5.65;2.65;;;;;;;;;;5072763;28;20107;-72
2022/08/05 03:03:06;;;;;;;4.13;2.53;;;;;;;;;;5072796;28;20120;-72
2022/08/05 03:05:31;;;;;;;4.82;3.00;;;;;;;;;;5072911;28;20036;-72
2022/08/05 03:07:56;;;;;;;3.92;2.80;;;;;;;;;;5072863;28;20540;-72
2022/08/05 03:10:23;;;;;;;4.10;2.88;;;;;;;;;;5072804;28;20047;-72
2022/08/05 03:12:48;;;;;;;3.55;2.50;;;;;;;;;;5072719;28;20074;-72
2022/08/05 03:15:13;;;;;;;5.40;3.00;;;;;;;;;;5072789;28;20032;-72
2022/08/05 03:17:39;;;;;;;4.32;2.75;;;;;;;;;;5072790;28;20340;-72
2022/08/05 03:20:05;;;;;;;6.07;2.90;;;;;;;;;;5072824;28;20024;-73
2022/08/05 03:22:31;;;;;;;4.90;3.00;;;;;;;;;;5072561;28;20029;-73
2022/08/05 03:24:57;;;;;;;3.95;2.50;;;;;;;;;;5073208;28;20474;-74
2022/08/05 03:27:23;;;;;;;5.00;2.90;;;;;;;;;;5072710;28;20024;-72
2022/08/05 03:29:49;;;;;;;6.45;2.90;;;;;;;;;;5054744;28;20126;-73
2022/08/05 03:32:15;;;;;;;3.40;2.78;;;;;;;;;;5076496;28;20028;-73
2022/08/05 03:34:41;;;;;;;4.53;3.10;;;;;;;;;;5076894;28;20444;-73
2022/08/05 03:37:07;;;;;;;4.55;2.80;;;;;;;;;;5076885;28;20363;-72
2022/08/05 03:39:32;;;;;;;4.22;2.60;;;;;;;;;;5076837;28;20066;-73
2022/08/05 03:41:57;;;;;;;5.33;2.93;;;;;;;;;;5058570;28;20115;-73
2022/08/05 03:44:23;;;;;;;4.20;2.78;;;;;;;;;;5076742;28;20257;-72
2022/08/05 03:46:49;;;;;;;10.25;3.42;;;;;;;;;;5076922;28;20027;-72
2022/08/05 03:49:14;;;;;;;4.90;2.67;;;;;;;;;;5077267;28;20390;-72
2022/08/05 03:51:48;;;;;;;6.70;2.88;;;;;;;;;;5076584;28;20052;-73
2022/08/05 03:54:18;;;;;;;7.38;2.83;;;;;;;;;;5076603;28;20021;-73
2022/08/05 03:56:45;;;;;;;4.63;3.13;;;;;;;;;;5076762;28;20063;-72
2022/08/05 03:59:20;;;;;;;4.68;2.88;;;;;;;;;;5076644;28;20033;-73
2022/08/05 04:01:48;;;;;;;8.45;3.30;;;;;;;;;;5076486;28;20075;-72
2022/08/05 04:04:14;;;;;;;6.20;2.92;;;;;;;;;;5079408;28;20043;-80
2022/08/05 04:06:40;;;;;;;3.38;2.85;;;;;;;;;;5084795;28;20028;-79
2022/08/05 04:09:06;;;;;;;4.93;3.15;;;;;;;;;;5067380;28;20029;-80
2022/08/05 04:11:33;;;;;;;5.90;2.72;;;;;;;;;;5083280;28;20111;-80
2022/08/05 04:13:59;;;;;;;7.72;2.83;;;;;;;;;;5084484;28;20052;-80
2022/08/05 04:16:25;;;;;;;3.88;3.00;;;;;;;;;;5085054;28;20497;-80
2022/08/05 04:18:50;;;;;;;3.22;2.90;;;;;;;;;;5084256;28;20089;-80
2022/08/05 04:21:15;;;;;;;7.05;3.05;;;;;;;;;;5085795;28;20447;-80
2022/08/05 04:23:42;;;;;;;9.13;3.13;;;;;;;;;;5085660;28;20027;-78
2022/08/05 04:26:07;;;;;;;7.90;3.45;;;;;;;;;;5082576;28;20074;-79
2022/08/05 04:28:32;;;;;;;4.85;3.30;;;;;;;;;;5083873;28;20058;-78
2022/08/05 04:30:58;;;;;;;7.25;3.70;;;;;;;;;;5082803;28;20537;-79
2022/08/05 04:33:24;;;;;;;7.07;3.20;;;;;;;;;;5084123;28;20023;-79
2022/08/05 04:35:49;;;;;;;7.30;3.43;;;;;;;;;;5084733;28;20024;-80
2022/08/05 04:38:14;;;;;;;6.13;3.07;;;;;;;;;;5085307;28;20262;-79
2022/08/05 04:40:40;;;;;;;3.80;2.90;;;;;;;;;;5085135;28;20261;-79
2022/08/05 04:43:06;;;;;;;8.05;3.30;;;;;;;;;;5084121;28;20035;-80
2022/08/05 04:45:32;;;;;;;8.60;3.67;;;;;;;;;;5083067;28;20033;-78
2022/08/05 04:48:12;;;;;;;7.32;3.40;;;;;;;;;;5082697;28;20036;-80
2022/08/05 04:50:45;;;;;;;5.32;3.22;;;;;;;;;;5084741;28;20107;-78
2022/08/05 04:53:12;;;;;;;8.63;3.28;;;;;;;;;;5079933;28;20362;-78
2022/08/05 04:55:39;;;;;;;10.75;3.53;;;;;;;;;;5083283;28;20119;-78
2022/08/05 04:58:07;;;;;;;10.32;3.60;;;;;;;;;;5082765;28;20147;-80
2022/08/05 05:00:35;;;;;;;9.80;3.60;;;;;;;;;;5082381;28;20059;-79
2022/08/05 05:03:01;;;;;;;8.85;3.15;;;;;;;;;;5084689;28;20028;-80
2022/08/05 05:05:27;;;;;;;4.43;3.20;;;;;;;;;;5081790;28;20081;-81
2022/08/05 05:08:03;;;;;;;8.60;2.90;;;;;;;;;;5079714;28;20032;-81
2022/08/05 05:10:30;;;;;;;6.78;3.20;;;;;;;;;;5079120;28;20051;-81
2022/08/05 05:12:56;;;;;;;7.07;3.40;;;;;;;;;;5079364;28;20032;-79
2022/08/05 05:15:22;;;;;;;12.00;3.90;;;;;;;;;;5062823;28;20046;-79
2022/08/05 05:17:47;;;;;;;6.95;3.20;;;;;;;;;;5081501;28;20392;-79
2022/08/05 05:20:13;;;;;;;8.23;3.35;;;;;;;;;;5082341;28;20024;-79
2022/08/05 05:22:39;;;;;;;7.57;3.42;;;;;;;;;;5080325;28;20371;-78
2022/08/05 05:25:05;;;;;;;6.05;3.08;;;;;;;;;;5080491;28;20130;-81
2022/08/05 05:27:32;;;;;;;13.52;3.90;;;;;;;;;;5063943;28;20020;-80
2022/08/05 05:29:57;;;;;;;8.23;2.95;;;;;;;;;;5083254;28;20020;-80
2022/08/05 05:32:22;;;;;;;5.65;3.22;;;;;;;;;;5082418;28;20467;-82
2022/08/05 05:34:48;;;;;;;4.47;3.22;;;;;;;;;;5063881;28;20020;-80
2022/08/05 05:37:13;;;;;;;7.65;3.33;;;;;;;;;;5084351;28;20055;-82
2022/08/05 05:39:39;;;;;;;7.53;3.50;;;;;;;;;;5065883;28;20062;-80
2022/08/05 05:42:04;;;;;;;8.52;3.63;;;;;;;;;;5083289;28;20074;-79
2022/08/05 05:44:30;;;;;;;9.07;3.80;;;;;;;;;;5084912;28;20070;-80
2022/08/05 05:46:55;;;;;;;5.43;3.57;;;;;;;;;;5081424;28;20119;-80
2022/08/05 05:49:20;;;;;;;17.80;3.95;;;;;;;;;;5077752;28;20048;-81
2022/08/05 05:51:45;;;;;;;5.10;3.20;;;;;;;;;;5077701;28;20153;-82
2022/08/05 05:54:11;;;;;;;4.93;3.63;;;;;;;;;;5077420;28;20056;-81
2022/08/05 05:56:36;;;;;;;5.03;3.07;;;;;;;;;;5059316;28;20261;-81
2022/08/05 05:59:04;;;;;;;8.63;3.37;;;;;;;;;;5077697;28;20265;-81
2022/08/05 06:01:31;;;;;;;11.63;3.50;;;;;;;;;;5077659;28;20020;-81
2022/08/05 06:03:56;;;;;;;4.97;3.28;;;;;;;;;;5058700;28;20041;-81
2022/08/05 06:06:21;;;;;;;9.07;3.17;;;;;;;;;;5077314;28;20028;-82
2022/08/05 06:08:46;;;;;;;12.73;3.67;;;;;;;;;;5076998;28;20028;-80
2022/08/05 06:11:12;;;;;;;7.03;3.53;;;;;;;;;;5059461;28;20470;-80
2022/08/05 06:13:37;;;;;;;6.33;3.40;;;;;;;;;;5076172;28;20289;-80
2022/08/05 06:16:02;;;;;;;11.23;3.30;;;;;;;;;;5076661;28;20047;-81
2022/08/05 06:18:27;;;;;;;7.85;3.65;;;;;;;;;;5077051;28;20252;-80
2022/08/05 06:20:53;;;;;;;5.67;3.50;;;;;;;;;;5076619;28;20424;-80
2022/08/05 06:23:18;;;;;;;4.47;3.30;;;;;;;;;;5076069;28;20371;-80
2022/08/05 06:25:43;;;;;;;5.17;3.40;;;;;;;;;;5076564;28;20265;-82
2022/08/05 06:28:08;;;;;;;7.07;3.17;;;;;;;;;;5059167;28;20265;-81
2022/08/05 06:30:33;;;;;;;8.73;3.70;;;;;;;;;;5076614;28;20020;-79
2022/08/05 06:32:59;;;;;;;8.33;3.57;;;;;;;;;;5076351;28;20079;-81
2022/08/05 06:35:24;;;;;;;6.93;3.30;;;;;;;;;;5077263;28;20020;-82
2022/08/05 06:37:49;;;;;;;6.63;3.63;;;;;;;;;;5059710;28;20086;-81
2022/08/05 06:40:15;;;;;;;5.10;3.30;;;;;;;;;;5077971;28;20257;-83
2022/08/05 06:42:40;;;;;;;14.18;3.30;;;;;;;;;;5076939;28;20035;-81
2022/08/05 06:45:06;;;;;;;8.53;3.40;;;;;;;;;;5077730;28;20362;-81
2022/08/05 06:47:32;;;;;;;8.27;3.72;;;;;;;;;;5080679;28;20749;-81
2022/08/05 06:49:57;;;;;;;12.27;4.43;;;;;;;;;;5079498;28;20151;-81
2022/08/05 06:52:22;;;;;;;9.13;3.20;;;;;;;;;;5077404;28;20245;-82
2022/08/05 06:54:47;;;;;;;10.50;3.50;;;;;;;;;;5059359;28;20258;-80
2022/08/05 06:57:14;;;;;;;10.23;3.30;;;;;;;;;;5076528;28;20265;-82
2022/08/05 06:59:40;;;;;;;5.55;3.40;;;;;;;;;;5058810;28;20389;-81
2022/08/05 07:02:05;;;;;;;8.52;3.38;;;;;;;;;;5076773;28;20064;-81
2022/08/05 07:04:30;;;;;;;7.13;2.85;;;;;;;;;;5059718;28;20077;-81
2022/08/05 07:06:56;;;;;;;6.67;2.87;;;;;;;;;;5081433;28;20481;-81
2022/08/05 07:09:21;;;;;;;7.40;2.70;;;;;;;;;;5081862;28;20489;-82
2022/08/05 07:11:46;;;;;;;10.20;2.90;;;;;;;;;;5080989;28;20491;-82
2022/08/05 07:16:59;;;;;;;5.53;2.50;;;;;;;;;;5081370;28;20043;-82
2022/08/05 07:19:26;;;;;;;8.00;2.55;;;;;;;;;;5080902;28;20021;-82
2022/08/05 07:21:52;;;;;;;3.63;2.40;;;;;;;;;;5080798;28;20393;-82
2022/08/05 07:24:17;;;;;;;6.35;2.45;;;;;;;;;;5081106;28;20024;-81
2022/08/05 07:26:43;;;;;;;6.45;2.45;;;;;;;;;;5080767;28;20024;-81
2022/08/05 07:29:09;;;;;;;12.32;2.55;;;;;;;;;;5081575;28;20048;-81
2022/08/05 07:31:34;;;;;;;5.75;2.55;;;;;;;;;;5062786;28;20031;-82
2022/08/05 07:34:00;;;;;;;10.95;2.40;;;;;;;;;;5081501;28;20024;-81
2022/08/05 07:36:26;;;;;;;13.63;3.45;;;;;;;;;;5080539;28;20478;-83
2022/08/05 07:38:51;;;;;;;7.47;2.70;;;;;;;;;;5081755;28;20394;-82
2022/08/05 07:41:19;;;;;;;10.40;2.70;;;;;;;;;;5080939;28;20032;-81
2022/08/05 07:43:44;;;;;;;10.10;3.30;;;;;;;;;;5063172;28;20262;-81
2022/08/05 07:46:10;;;;;;;7.53;3.47;;;;;;;;;;5080358;28;20112;-82
2022/08/05 07:48:35;;;;;;;6.28;3.35;;;;;;;;;;5062451;28;20027;-82
2022/08/05 07:51:00;;;;;;;6.43;3.53;;;;;;;;;;5062995;28;20028;-82
2022/08/05 07:53:26;;;;;;;7.57;3.27;;;;;;;;;;5081137;28;20073;-81
2022/08/05 07:55:53;;;;;;;8.10;3.70;;;;;;;;;;5080374;28;20036;-82
2022/08/05 07:58:18;;;;;;;9.32;3.40;;;;;;;;;;5080709;28;20722;-84
2022/08/05 08:00:43;;;;;;;8.20;3.42;;;;;;;;;;5080331;28;20028;-82
2022/08/05 08:03:10;;;;;;;13.60;3.65;;;;;;;;;;5079891;28;20039;-82
2022/08/05 08:05:36;;;;;;;8.45;3.50;;;;;;;;;;5062224;28;20028;-79
2022/08/05 08:08:01;;;;;;;8.52;3.38;;;;;;;;;;5080251;28;20089;-81
2022/08/05 08:10:27;;;;;;;7.93;3.45;;;;;;;;;;5079671;28;20024;-80
2022/08/05 08:12:54;;;;;;;14.57;3.63;;;;;;;;;;5080599;28;20052;-79
2022/08/05 08:15:19;;;;;;;7.70;3.47;;;;;;;;;;5080291;28;20032;-81
2022/08/05 08:17:44;;;;;;;12.27;3.53;;;;;;;;;;5079514;28;20020;-80
2022/08/05 08:20:10;;;;;;;6.72;3.45;;;;;;;;;;5080227;28;20115;-82
2022/08/05 08:22:35;;;;;;;8.18;3.50;;;;;;;;;;5081008;28;20032;-82
2022/08/05 08:25:00;;;;;;;7.45;3.30;;;;;;;;;;5080485;28;20050;-81
2022/08/05 08:27:26;;;;;;;6.90;3.38;;;;;;;;;;5061832;28;20048;-81
2022/08/05 08:29:51;;;;;;;7.33;3.03;;;;;;;;;;5079929;28;20050;-80
2022/08/05 08:32:16;;;;;;;7.27;3.37;;;;;;;;;;5080040;28;20852;-81
2022/08/05 08:34:42;;;;;;;10.80;3.15;;;;;;;;;;5079674;28;20032;-82
2022/08/05 08:37:07;;;;;;;8.27;2.90;;;;;;;;;;5080713;28;20021;-81
2022/08/05 08:39:33;;;;;;;11.70;3.53;;;;;;;;;;5079808;28;20028;-82
2022/08/05 08:42:00;;;;;;;7.88;3.00;;;;;;;;;;5061055;28;20029;-82
2022/08/05 08:44:28;;;;;;;10.57;3.10;;;;;;;;;;5078954;28;20024;-81
2022/08/05 08:46:55;;;;;;;5.47;3.33;;;;;;;;;;5061583;28;20445;-80
2022/08/05 08:49:22;;;;;;;9.35;3.20;;;;;;;;;;5078491;28;20029;-80
2022/08/05 08:51:52;;;;;;;10.05;3.35;;;;;;;;;;5079525;28;20029;-81
2022/08/05 08:54:17;;;;;;;12.35;3.38;;;;;;;;;;5060265;28;20103;-81
2022/08/05 08:56:42;;;;;;;8.77;3.10;;;;;;;;;;5060651;28;20446;-81
2022/08/05 08:59:10;;;;;;;4.70;3.03;;;;;;;;;;5061286;28;20477;-80
2022/08/05 09:01:36;;;;;;;8.07;3.20;;;;;;;;;;5078946;28;20020;-81
2022/08/05 09:04:01;;;;;;;12.00;3.20;;;;;;;;;;5060929;28;20031;-82
2022/08/05 09:06:29;;;;;;;4.17;3.10;;;;;;;;;;5061161;28;20096;-80
2022/08/05 09:08:54;;;;;;;6.40;3.17;;;;;;;;;;5078069;28;20036;-81
2022/08/05 09:11:20;;;;;;;6.68;2.88;;;;;;;;;;5079307;28;20074;-81
2022/08/05 09:13:45;;;;;;;6.90;3.10;;;;;;;;;;5080026;28;20473;-81
2022/08/05 09:16:13;;;;;;;5.85;3.13;;;;;;;;;;5079724;28;20455;-83
2022/08/05 09:18:39;;;;;;;7.63;3.17;;;;;;;;;;5079388;28;20020;-81
2022/08/05 09:21:04;;;;;;;5.75;3.25;;;;;;;;;;5078429;28;20106;-80
2022/08/05 09:23:30;;;;;;;5.35;3.05;;;;;;;;;;5079080;28;20020;-82
2022/08/05 09:26:10;;;;;;;5.90;3.00;;;;;;;;;;5061910;28;20481;-81
2022/08/05 09:28:37;;;;;;;11.35;2.97;;;;;;;;;;5078337;28;20032;-82
2022/08/05 09:31:07;;;;;;;7.47;3.00;;;;;;;;;;5080279;28;20038;-82
2022/08/05 09:33:49;;;;;;;9.57;3.25;;;;;;;;;;5060500;28;20025;-82
2022/08/05 09:36:15;;;;;;;6.80;3.00;;;;;;;;;;5079126;28;20081;-82
2022/08/05 09:39:01;;;;;;;8.07;3.25;;;;;;;;;;5078289;28;20029;-83
2022/08/05 09:41:27;;;;;;;8.10;3.35;;;;;;;;;;5078767;28;20043;-83
2022/08/05 09:43:52;;;;;;;6.97;2.97;;;;;;;;;;5078943;28;20028;-80
2022/08/05 09:46:29;;;;;;;4.47;3.20;;;;;;;;;;5078404;28;20036;-80
2022/08/05 09:48:56;;;;;;;9.70;3.30;;;;;;;;;;5077932;28;20017;-80
2022/08/05 09:51:33;;;;;;;9.10;3.13;;;;;;;;;;5077839;28;20474;-80
2022/08/05 09:53:59;;;;;;;4.97;3.00;;;;;;;;;;5059848;28;20531;-81
2022/08/05 09:56:27;;;;;;;6.68;3.15;;;;;;;;;;5060098;28;20405;-81
2022/08/05 09:59:10;;;;;;;4.57;3.10;;;;;;;;;;5077760;28;20020;-83
2022/08/05 10:01:40;;;;;;;5.90;3.20;;;;;;;;;;5077772;28;20026;-84
2022/08/05 10:04:09;;;;;;;7.85;3.08;;;;;;;;;;5079201;28;20028;-83
2022/08/05 10:06:35;;;;;;;9.30;3.20;;;;;;;;;;5078158;28;20424;-81
2022/08/05 10:09:18;;;;;;;5.82;3.08;;;;;;;;;;5078148;28;20048;-82
2022/08/05 10:11:44;;;;;;;7.03;3.30;;;;;;;;;;5077629;28;20017;-81
2022/08/05 10:14:22;;;;;;;10.65;3.60;;;;;;;;;;5059581;28;20032;-82
2022/08/05 10:16:48;;;;;;;12.63;3.60;;;;;;;;;;5077643;28;20028;-82
2022/08/05 10:19:14;;;;;;;14.73;3.67;;;;;;;;;;5077728;28;20029;-80
2022/08/05 10:21:39;;;;;;;8.25;3.22;;;;;;;;;;5077284;28;20077;-82
2022/08/05 10:24:06;;;;;;;7.60;3.30;;;;;;;;;;5077580;28;20024;-81
2022/08/05 10:26:31;;;;;;;4.97;3.35;;;;;;;;;;5078310;28;20253;-81
2022/08/05 10:28:56;;;;;;;4.68;3.33;;;;;;;;;;5078104;28;20024;-81
2022/08/05 10:31:22;;;;;;;7.10;3.57;;;;;;;;;;5077470;28;20020;-80
2022/08/05 10:33:50;;;;;;;10.30;3.35;;;;;;;;;;5077368;28;20259;-81
2022/08/05 10:36:16;;;;;;;6.70;3.05;;;;;;;;;;5078397;28;20107;-80
2022/08/05 10:38:45;;;;;;;5.00;3.20;;;;;;;;;;5078565;28;20055;-82
2022/08/05 10:41:21;;;;;;;9.55;3.50;;;;;;;;;;5077288;28;20039;-81
2022/08/05 10:43:53;;;;;;;8.13;3.60;;;;;;;;;;5077263;28;20401;-81
2022/08/05 10:46:20;;;;;;;6.80;3.28;;;;;;;;;;5077095;28;20024;-81
2022/08/05 10:48:54;;;;;;;5.07;3.67;;;;;;;;;;5077484;28;20071;-82
2022/08/05 10:51:20;;;;;;;;;;;;;;;;;;5078376;28;20024;-83
2022/08/05 10:53:54;;;;;;;6.35;3.30;;;;;;;;;;5077810;28;19908;-82
2022/08/05 10:56:22;;;;;;;8.05;3.30;;;;;;;;;;5077526;28;20027;-83
2022/08/05 10:58:59;;;;;;;8.00;3.53;;;;;;;;;;5077112;28;20033;-81
2022/08/05 11:01:34;;;;;;;9.40;3.50;;;;;;;;;;5076238;28;20020;-82
2022/08/05 11:04:11;;;;;;;8.02;3.53;;;;;;;;;;5076459;28;20449;-82
2022/08/05 11:06:55;;;;;;;6.13;3.45;;;;;;;;;;5077021;28;20032;-80
2022/08/05 11:09:22;;;;;;;6.03;3.33;;;;;;;;;;5077260;28;20127;-82
2022/08/05 11:11:52;;;;;;;4.60;3.35;;;;;;;;;;5076455;28;20032;-81
2022/08/05 11:14:30;;;;;;;6.53;3.47;;;;;;;;;;5059036;28;20024;-82
2022/08/05 11:17:23;;;;;;;5.68;3.40;;;;;;;;;;5077303;28;20021;-83
2022/08/05 11:19:52;;;;;;;6.00;3.38;;;;;;;;;;5076660;28;20025;-83
2022/08/05 11:22:36;;;;;;;7.38;3.55;;;;;;;;;;5076849;28;20025;-83
2022/08/05 11:25:30;;;;;;;7.03;3.50;;;;;;;;;;5077743;28;20052;-82
2022/08/05 11:27:55;;;;;;;;;;;;;;;;;;5078924;28;20048;-82
2022/08/05 11:30:21;;;;;;;5.60;3.22;;;;;;;;;;5078199;28;19908;-82
2022/08/05 11:32:47;;;;;;;5.18;3.58;;;;;;;;;;5077977;28;20036;-82
2022/08/05 11:35:49;;;;;;;9.38;3.92;;;;;;;;;;5059560;28;20458;-82
2022/08/05 11:38:15;;;;;;;9.57;3.38;;;;;;;;;;5077282;28;20054;-82
2022/08/05 11:40:58;;;;;;;9.37;3.60;;;;;;;;;;5077255;28;20024;-81
2022/08/05 11:43:23;;;;;;;4.75;3.67;;;;;;;;;;5076729;28;20076;-80
2022/08/05 11:45:48;;;;;;;5.83;3.57;;;;;;;;;;5059264;28;20514;-81
2022/08/05 11:48:14;;;;;;;8.65;3.25;;;;;;;;;;5059337;28;20258;-81
2022/08/05 11:50:40;;;;;;;6.70;3.53;;;;;;;;;;5059030;28;20115;-82
2022/08/05 11:53:05;;;;;;;8.30;3.38;;;;;;;;;;5062315;28;20484;-83
2022/08/05 11:55:31;;;;;;;13.23;3.28;;;;;;;;;;5080734;28;20032;-83
2022/08/05 11:57:56;;;;;;;13.80;3.63;;;;;;;;;;5065778;28;20029;-83
2022/08/05 12:00:26;;;;;;;6.70;3.67;;;;;;;;;;5080785;28;20757;-82
2022/08/05 12:02:51;;;;;;;7.63;3.10;;;;;;;;;;5079923;28;20021;-83
2022/08/05 12:05:25;;;;;;;4.07;3.17;;;;;;;;;;5079581;28;20032;-83
2022/08/05 12:07:50;;;;;;;8.50;3.15;;;;;;;;;;5080462;28;20257;-83
2022/08/05 12:10:18;;;;;;;8.67;3.27;;;;;;;;;;5074873;28;20039;-79
2022/08/05 12:12:43;;;;;;;4.15;3.05;;;;;;;;;;5099169;28;20249;-78
2022/08/05 12:15:18;;;;;;;6.35;2.90;;;;;;;;;;5098906;28;20366;-77
2022/08/05 12:17:45;;;;;;;9.18;3.00;;;;;;;;;;5081526;28;20389;-79
2022/08/05 12:20:11;;;;;;;8.68;2.80;;;;;;;;;;5101090;28;20541;-78
2022/08/05 12:22:36;;;;;;;8.88;3.00;;;;;;;;;;5100022;28;20091;-78
2022/08/05 12:25:02;;;;;;;5.07;2.50;;;;;;;;;;5100567;28;20081;-79
2022/08/05 12:27:31;;;;;;;5.88;2.50;;;;;;;;;;5101445;28;20028;-78
2022/08/05 12:30:08;;;;;;;7.93;3.00;;;;;;;;;;5101628;28;20481;-79
2022/08/05 12:32:42;;;;;;;5.13;2.42;;;;;;;;;;5100837;28;20030;-79
2022/08/05 12:35:08;;;;;;;;;;;;;;;;;;5100099;28;20032;-79
2022/08/05 12:37:33;;;;;;;4.32;2.58;;;;;;;;;;5100413;28;20391;-78
2022/08/05 12:39:59;;;;;;;7.53;2.47;;;;;;;;;;5100702;28;20489;-80
2022/08/05 12:42:28;;;;;;;6.10;2.38;;;;;;;;;;5099975;28;20028;-79
2022/08/05 12:45:07;;;;;;;5.95;2.67;;;;;;;;;;5081605;28;20049;-78
2022/08/05 12:47:33;;;;;;;3.42;2.70;;;;;;;;;;5099431;28;20497;-79
2022/08/05 12:49:59;;;;;;;4.25;2.47;;;;;;;;;;5099782;28;20035;-78
2022/08/05 12:52:25;;;;;;;3.72;2.20;;;;;;;;;;5099516;28;20067;-78
2022/08/05 12:54:50;;;;;;;6.40;2.30;;;;;;;;;;5099702;28;20024;-80
2022/08/05 12:57:17;;;;;;;3.72;2.17;;;;;;;;;;5100583;28;20023;-79
2022/08/05 12:59:52;;;;;;;4.63;2.45;;;;;;;;;;5100592;28;20093;-79
2022/08/05 13:02:24;;;;;;;3.63;2.60;;;;;;;;;;5098735;28;20419;-79
2022/08/05 13:04:50;;;;;;;5.53;2.60;;;;;;;;;;5081382;28;20109;-78
2022/08/05 13:07:19;;;;;;;4.45;2.45;;;;;;;;;;5097865;28;20052;-80
2022/08/05 13:09:52;;;;;;;6.40;2.40;;;;;;;;;;5081103;28;20028;-78
2022/08/05 13:12:20;;;;;;;2.80;2.28;;;;;;;;;;5098276;28;20016;-79
2022/08/05 13:14:52;;;;;;;8.40;2.90;;;;;;;;;;5099676;28;20024;-80
2022/08/05 13:17:23;;;;;;;10.98;2.40;;;;;;;;;;5100469;28;20024;-78
2022/08/05 13:20:13;;;;;;;5.93;2.67;;;;;;;;;;5099666;28;20023;-79
2022/08/05 13:22:42;;;;;;;11.82;2.65;;;;;;;;;;5099481;28;20032;-79
2022/08/05 13:25:10;;;;;;;4.35;2.30;;;;;;;;;;5098888;28;20571;-78
2022/08/05 13:27:38;;;;;;;7.60;2.42;;;;;;;;;;5099570;28;20496;-78
2022/08/05 13:30:05;;;;;;;3.25;2.30;;;;;;;;;;5099893;28;20031;-79
2022/08/05 13:32:31;;;;;;;6.55;2.42;;;;;;;;;;5100707;28;20024;-80
2022/08/05 13:34:57;;;;;;;5.43;2.40;;;;;;;;;;5098945;28;20477;-77
2022/08/05 13:37:22;;;;;;;6.50;2.42;;;;;;;;;;5098802;28;20028;-78
2022/08/05 13:39:49;;;;;;;5.32;2.53;;;;;;;;;;5099695;28;20024;-79
2022/08/05 13:42:14;;;;;;;4.07;2.30;;;;;;;;;;5100644;28;20039;-78
2022/08/05 13:44:40;;;;;;;4.72;2.25;;;;;;;;;;5080884;28;20032;-79
2022/08/05 13:47:05;;;;;;;5.63;2.20;;;;;;;;;;5080198;28;20028;-80
2022/08/05 13:49:30;;;;;;;3.47;2.08;;;;;;;;;;5081046;28;20020;-79
2022/08/05 13:51:56;;;;;;;8.90;2.30;;;;;;;;;;5098786;28;20032;-79
2022/08/05 13:54:21;;;;;;;6.93;2.20;;;;;;;;;;5098709;28;20469;-80
2022/08/05 13:56:46;;;;;;;5.95;2.38;;;;;;;;;;5079992;28;20127;-79
2022/08/05 13:59:12;;;;;;;4.43;2.10;;;;;;;;;;5097146;28;20028;-79
2022/08/05 14:01:38;;;;;;;4.15;2.13;;;;;;;;;;5078630;28;20028;-79
2022/08/05 14:06:47;;;;;;;3.53;2.45;;;;;;;;;;5098391;28;20108;-79
2022/08/05 14:09:12;;;;;;;5.30;2.20;;;;;;;;;;5091646;28;20055;-82
2022/08/05 14:11:40;;;;;;;2.30;2.00;;;;;;;;;;5076748;28;20032;-82
2022/08/05 14:14:08;;;;;;;5.63;2.22;;;;;;;;;;5075974;28;20501;-82
2022/08/05 14:16:33;;;;;;;3.53;1.95;;;;;;;;;;5058133;28;20406;-82
2022/08/05 14:18:59;;;;;;;6.07;2.00;;;;;;;;;;5076851;28;20032;-81
2022/08/05 14:21:25;;;;;;;3.42;2.05;;;;;;;;;;5076763;28;20029;-80
2022/08/05 14:23:50;;;;;;;4.65;2.22;;;;;;;;;;5076325;28;20040;-81
2022/08/05 14:26:15;;;;;;;5.85;2.30;;;;;;;;;;5076966;28;20032;-82
2022/08/05 14:28:40;;;;;;;3.75;2.00;;;;;;;;;;5076149;28;20369;-81
2022/08/05 14:31:07;;;;;;;5.25;1.90;;;;;;;;;;5076071;28;20054;-82
2022/08/05 14:33:32;;;;;;;2.72;1.70;;;;;;;;;;5076248;28;20017;-79
2022/08/05 14:35:58;;;;;;;5.63;2.00;;;;;;;;;;5076409;28;20032;-80
2022/08/05 14:38:23;;;;;;;4.78;2.17;;;;;;;;;;5075730;28;20032;-80
2022/08/05 14:40:48;;;;;;;2.40;1.80;;;;;;;;;;5058015;28;20016;-81
2022/08/05 14:43:13;;;;;;;6.33;1.93;;;;;;;;;;5059008;28;20175;-77
2022/08/05 14:45:39;;;;;;;2.57;2.00;;;;;;;;;;5077511;28;20025;-79
2022/08/05 14:48:04;;;;;;;4.43;2.20;;;;;;;;;;5060816;28;20031;-79
2022/08/05 14:50:29;;;;;;;4.95;1.88;;;;;;;;;;5078497;28;20042;-79
2022/08/05 14:52:57;;;;;;;5.63;2.10;;;;;;;;;;5078039;28;20020;-80